sensor_id;sensor_type;location;lat;lon;timestamp;temperature;humidity
14144;DHT22;7152;48.348;10.980;2022-10-30T00:02:16;12.80;99.90
14144;DHT22;7152;48.348;10.980;2022-10-30T00:04:42;12.80;99.90
14144;DHT22;7152;48.348;10.980;2022-10-30T00:07:07;12.80;99.90
14144;DHT22;7152;48.348;10.980;2022-10-30T00:09:33;12.80;99.90
14144;DHT22;7152;48.348;10.980;2022-10-30T00:11:59;12.70;99.90
14144;DHT22;7152;48.348;10.980;2022-10-30T00:14:24;12.70;99.90
14144;DHT22;7152;48.348;10.980;2022-10-30T00:16:50;12.60;99.90
14144;DHT22;7152;48.348;10.980;2022-10-30T00:19:15;12.60;99.90
14144;DHT22;7152;48.348;10.980;2022-10-30T00:21:41;12.50;99.90
14144;DHT22;7152;48.348;10.980;2022-10-30T00:24:07;12.50;99.90
14144;DHT22;7152;48.348;10.980;2022-10-30T00:26:32;12.50;99.90
14144;DHT22;7152;48.348;10.980;2022-10-30T00:28:58;12.40;99.90
14144;DHT22;7152;48.348;10.980;2022-10-30T00:31:24;12.40;99.90
14144;DHT22;7152;48.348;10.980;2022-10-30T00:33:54;12.40;99.90
14144;DHT22;7152;48.348;10.980;2022-10-30T00:36:20;12.40;99.90
14144;DHT22;7152;48.348;10.980;2022-10-30T00:38:46;12.30;99.90
14144;DHT22;7152;48.348;10.980;2022-10-30T00:41:17;12.30;99.90
14144;DHT22;7152;48.348;10.980;2022-10-30T00:43:43;12.20;99.90
14144;DHT22;7152;48.348;10.980;2022-10-30T00:48:42;12.20;99.90
14144;DHT22;7152;48.348;10.980;2022-10-30T00:51:10;12.10;99.90
14144;DHT22;7152;48.348;10.980;2022-10-30T00:53:37;12.10;99.90
14144;DHT22;7152;48.348;10.980;2022-10-30T00:56:05;12.00;99.90
14144;DHT22;7152;48.348;10.980;2022-10-30T00:58:35;12.00;99.90
14144;DHT22;7152;48.348;10.980;2022-10-30T01:01:05;12.00;99.90
14144;DHT22;7152;48.348;10.980;2022-10-30T01:03:32;11.90;99.90
14144;DHT22;7152;48.348;10.980;2022-10-30T01:06:02;11.90;99.90
14144;DHT22;7152;48.348;10.980;2022-10-30T01:08:29;11.80;99.90
14144;DHT22;7152;48.348;10.980;2022-10-30T01:10:56;11.80;99.90
14144;DHT22;7152;48.348;10.980;2022-10-30T01:13:23;11.80;99.90
14144;DHT22;7152;48.348;10.980;2022-10-30T01:16:25;11.80;99.90
14144;DHT22;7152;48.348;10.980;2022-10-30T01:38:03;11.70;99.90
14144;DHT22;7152;48.348;10.980;2022-10-30T01:40:31;11.70;99.90
14144;DHT22;7152;48.348;10.980;2022-10-30T01:42:58;11.70;99.90
14144;DHT22;7152;48.348;10.980;2022-10-30T01:51:10;11.90;99.90
14144;DHT22;7152;48.348;10.980;2022-10-30T01:53:58;11.90;99.90
14144;DHT22;7152;48.348;10.980;2022-10-30T01:56:36;11.90;99.90
14144;DHT22;7152;48.348;10.980;2022-10-30T02:01:31;11.90;99.90
14144;DHT22;7152;48.348;10.980;2022-10-30T02:04:00;11.90;99.90
14144;DHT22;7152;48.348;10.980;2022-10-30T02:06:26;11.80;99.90
14144;DHT22;7152;48.348;10.980;2022-10-30T02:08:54;11.80;99.90
14144;DHT22;7152;48.348;10.980;2022-10-30T02:11:22;11.80;99.90
14144;DHT22;7152;48.348;10.980;2022-10-30T02:13:50;11.70;99.90
14144;DHT22;7152;48.348;10.980;2022-10-30T02:16:17;11.60;99.90
14144;DHT22;7152;48.348;10.980;2022-10-30T02:18:42;11.60;99.90
14144;DHT22;7152;48.348;10.980;2022-10-30T02:21:08;11.50;99.90
14144;DHT22;7152;48.348;10.980;2022-10-30T02:23:34;11.50;99.90
14144;DHT22;7152;48.348;10.980;2022-10-30T02:26:00;11.50;99.90
14144;DHT22;7152;48.348;10.980;2022-10-30T02:28:25;11.40;99.90
14144;DHT22;7152;48.348;10.980;2022-10-30T02:30:51;11.40;99.90
14144;DHT22;7152;48.348;10.980;2022-10-30T02:33:17;11.30;99.90
14144;DHT22;7152;48.348;10.980;2022-10-30T02:35:42;11.30;99.90
14144;DHT22;7152;48.348;10.980;2022-10-30T02:38:08;11.20;99.90
14144;DHT22;7152;48.348;10.980;2022-10-30T02:40:34;11.20;99.90
14144;DHT22;7152;48.348;10.980;2022-10-30T02:42:59;11.30;99.90
14144;DHT22;7152;48.348;10.980;2022-10-30T02:45:25;11.40;99.90
14144;DHT22;7152;48.348;10.980;2022-10-30T02:47:51;11.40;99.90
14144;DHT22;7152;48.348;10.980;2022-10-30T02:50:16;11.50;99.90
14144;DHT22;7152;48.348;10.980;2022-10-30T02:52:42;11.50;99.90
14144;DHT22;7152;48.348;10.980;2022-10-30T02:55:08;11.60;99.90
14144;DHT22;7152;48.348;10.980;2022-10-30T02:57:34;11.70;99.90
14144;DHT22;7152;48.348;10.980;2022-10-30T02:59:59;11.80;99.90
14144;DHT22;7152;48.348;10.980;2022-10-30T03:02:25;11.80;99.90
14144;DHT22;7152;48.348;10.980;2022-10-30T03:04:51;11.80;99.90
14144;DHT22;7152;48.348;10.980;2022-10-30T03:07:17;11.80;99.90
14144;DHT22;7152;48.348;10.980;2022-10-30T03:09:42;11.80;99.90
14144;DHT22;7152;48.348;10.980;2022-10-30T03:12:08;11.70;99.90
14144;DHT22;7152;48.348;10.980;2022-10-30T03:14:34;11.60;99.90
14144;DHT22;7152;48.348;10.980;2022-10-30T03:16:59;11.50;99.90
14144;DHT22;7152;48.348;10.980;2022-10-30T03:19:25;11.50;99.90
14144;DHT22;7152;48.348;10.980;2022-10-30T03:21:52;11.40;99.90
14144;DHT22;7152;48.348;10.980;2022-10-30T03:24:18;11.30;99.90
14144;DHT22;7152;48.348;10.980;2022-10-30T03:26:43;11.30;99.90
14144;DHT22;7152;48.348;10.980;2022-10-30T03:29:09;11.30;99.90
14144;DHT22;7152;48.348;10.980;2022-10-30T03:31:35;11.40;99.90
14144;DHT22;7152;48.348;10.980;2022-10-30T03:34:00;11.40;99.90
14144;DHT22;7152;48.348;10.980;2022-10-30T03:36:26;11.40;99.90
14144;DHT22;7152;48.348;10.980;2022-10-30T03:38:52;11.40;99.90
14144;DHT22;7152;48.348;10.980;2022-10-30T03:41:17;11.40;99.90
14144;DHT22;7152;48.348;10.980;2022-10-30T03:43:43;11.30;99.90
14144;DHT22;7152;48.348;10.980;2022-10-30T03:46:09;11.30;99.90
14144;DHT22;7152;48.348;10.980;2022-10-30T03:48:35;11.20;99.90
14144;DHT22;7152;48.348;10.980;2022-10-30T03:51:02;11.10;99.90
14144;DHT22;7152;48.348;10.980;2022-10-30T03:53:28;11.10;99.90
14144;DHT22;7152;48.348;10.980;2022-10-30T03:55:59;11.10;99.90
14144;DHT22;7152;48.348;10.980;2022-10-30T03:58:26;11.00;99.90
14144;DHT22;7152;48.348;10.980;2022-10-30T04:00:52;11.00;99.90
14144;DHT22;7152;48.348;10.980;2022-10-30T04:03:18;10.90;99.90
14144;DHT22;7152;48.348;10.980;2022-10-30T04:05:44;10.90;99.90
14144;DHT22;7152;48.348;10.980;2022-10-30T04:08:13;10.80;99.90
14144;DHT22;7152;48.348;10.980;2022-10-30T04:10:42;10.80;99.90
14144;DHT22;7152;48.348;10.980;2022-10-30T04:13:10;10.70;99.90
14144;DHT22;7152;48.348;10.980;2022-10-30T04:15:36;10.70;99.90
14144;DHT22;7152;48.348;10.980;2022-10-30T04:18:02;10.70;99.90
14144;DHT22;7152;48.348;10.980;2022-10-30T04:20:28;10.60;99.90
14144;DHT22;7152;48.348;10.980;2022-10-30T04:23:05;10.50;99.90
14144;DHT22;7152;48.348;10.980;2022-10-30T04:25:32;10.50;99.90
14144;DHT22;7152;48.348;10.980;2022-10-30T04:27:59;10.50;99.90
14144;DHT22;7152;48.348;10.980;2022-10-30T04:30:24;10.40;99.90
14144;DHT22;7152;48.348;10.980;2022-10-30T04:32:53;10.40;99.90
14144;DHT22;7152;48.348;10.980;2022-10-30T04:35:21;10.40;99.90
14144;DHT22;7152;48.348;10.980;2022-10-30T04:37:52;10.40;99.90
14144;DHT22;7152;48.348;10.980;2022-10-30T04:40:18;10.40;99.90
14144;DHT22;7152;48.348;10.980;2022-10-30T04:42:47;10.40;99.90
14144;DHT22;7152;48.348;10.980;2022-10-30T04:45:13;10.40;99.90
14144;DHT22;7152;48.348;10.980;2022-10-30T04:47:38;10.50;99.90
14144;DHT22;7152;48.348;10.980;2022-10-30T04:50:04;10.50;99.90
14144;DHT22;7152;48.348;10.980;2022-10-30T04:52:30;10.60;99.90
14144;DHT22;7152;48.348;10.980;2022-10-30T04:54:56;10.60;99.90
14144;DHT22;7152;48.348;10.980;2022-10-30T04:57:21;10.60;99.90
14144;DHT22;7152;48.348;10.980;2022-10-30T04:59:47;10.70;99.90
14144;DHT22;7152;48.348;10.980;2022-10-30T05:02:13;10.70;99.90
14144;DHT22;7152;48.348;10.980;2022-10-30T05:04:38;10.70;99.90
14144;DHT22;7152;48.348;10.980;2022-10-30T05:07:04;10.70;99.90
14144;DHT22;7152;48.348;10.980;2022-10-30T05:09:30;10.70;99.90
14144;DHT22;7152;48.348;10.980;2022-10-30T05:11:55;10.70;99.90
14144;DHT22;7152;48.348;10.980;2022-10-30T05:14:21;10.60;99.90
14144;DHT22;7152;48.348;10.980;2022-10-30T05:16:46;10.60;99.90
14144;DHT22;7152;48.348;10.980;2022-10-30T05:19:12;10.60;99.90
14144;DHT22;7152;48.348;10.980;2022-10-30T05:21:38;10.60;99.90
14144;DHT22;7152;48.348;10.980;2022-10-30T05:24:03;10.60;99.90
14144;DHT22;7152;48.348;10.980;2022-10-30T05:26:29;10.50;99.90
14144;DHT22;7152;48.348;10.980;2022-10-30T05:28:55;10.40;99.90
14144;DHT22;7152;48.348;10.980;2022-10-30T05:31:20;10.40;99.90
14144;DHT22;7152;48.348;10.980;2022-10-30T05:33:46;10.40;99.90
14144;DHT22;7152;48.348;10.980;2022-10-30T05:36:11;10.40;99.90
14144;DHT22;7152;48.348;10.980;2022-10-30T05:38:37;10.30;99.90
14144;DHT22;7152;48.348;10.980;2022-10-30T05:41:02;10.30;99.90
14144;DHT22;7152;48.348;10.980;2022-10-30T05:43:28;10.40;99.90
14144;DHT22;7152;48.348;10.980;2022-10-30T05:45:54;10.40;99.90
14144;DHT22;7152;48.348;10.980;2022-10-30T05:48:19;10.40;99.90
14144;DHT22;7152;48.348;10.980;2022-10-30T05:50:45;10.50;99.90
14144;DHT22;7152;48.348;10.980;2022-10-30T05:53:10;10.50;99.90
14144;DHT22;7152;48.348;10.980;2022-10-30T05:55:36;10.60;99.90
14144;DHT22;7152;48.348;10.980;2022-10-30T05:58:04;10.60;99.90
14144;DHT22;7152;48.348;10.980;2022-10-30T06:00:32;10.60;99.90
14144;DHT22;7152;48.348;10.980;2022-10-30T06:03:02;10.60;99.90
14144;DHT22;7152;48.348;10.980;2022-10-30T06:05:30;10.60;99.90
14144;DHT22;7152;48.348;10.980;2022-10-30T06:07:56;10.60;99.90
14144;DHT22;7152;48.348;10.980;2022-10-30T06:10:23;10.60;99.90
14144;DHT22;7152;48.348;10.980;2022-10-30T06:12:58;10.70;99.90
14144;DHT22;7152;48.348;10.980;2022-10-30T06:15:25;10.70;99.90
14144;DHT22;7152;48.348;10.980;2022-10-30T06:17:51;10.70;99.90
14144;DHT22;7152;48.348;10.980;2022-10-30T06:20:18;10.80;99.90
14144;DHT22;7152;48.348;10.980;2022-10-30T06:25:20;10.90;99.90
14144;DHT22;7152;48.348;10.980;2022-10-30T06:27:45;10.90;99.90
14144;DHT22;7152;48.348;10.980;2022-10-30T06:30:11;11.00;99.90
14144;DHT22;7152;48.348;10.980;2022-10-30T06:32:37;10.90;99.90
14144;DHT22;7152;48.348;10.980;2022-10-30T06:35:03;10.80;99.90
14144;DHT22;7152;48.348;10.980;2022-10-30T06:37:28;10.80;99.90
14144;DHT22;7152;48.348;10.980;2022-10-30T06:39:54;10.70;99.90
14144;DHT22;7152;48.348;10.980;2022-10-30T06:42:20;10.70;99.90
14144;DHT22;7152;48.348;10.980;2022-10-30T06:44:46;10.70;99.90
14144;DHT22;7152;48.348;10.980;2022-10-30T06:47:13;10.70;99.90
14144;DHT22;7152;48.348;10.980;2022-10-30T06:49:39;10.70;99.90
14144;DHT22;7152;48.348;10.980;2022-10-30T06:52:05;10.60;99.90
14144;DHT22;7152;48.348;10.980;2022-10-30T06:54:30;10.60;99.90
14144;DHT22;7152;48.348;10.980;2022-10-30T06:56:56;10.70;99.90
14144;DHT22;7152;48.348;10.980;2022-10-30T06:59:21;10.60;99.90
14144;DHT22;7152;48.348;10.980;2022-10-30T07:01:47;10.70;99.90
14144;DHT22;7152;48.348;10.980;2022-10-30T07:04:13;10.60;99.90
14144;DHT22;7152;48.348;10.980;2022-10-30T07:06:38;10.70;99.90
14144;DHT22;7152;48.348;10.980;2022-10-30T07:09:04;10.70;99.90
14144;DHT22;7152;48.348;10.980;2022-10-30T07:11:30;10.70;99.90
14144;DHT22;7152;48.348;10.980;2022-10-30T07:13:55;10.70;99.90
14144;DHT22;7152;48.348;10.980;2022-10-30T07:16:21;10.80;99.90
14144;DHT22;7152;48.348;10.980;2022-10-30T07:18:47;10.80;99.90
14144;DHT22;7152;48.348;10.980;2022-10-30T07:21:12;10.80;99.90
14144;DHT22;7152;48.348;10.980;2022-10-30T07:23:38;10.90;99.90
14144;DHT22;7152;48.348;10.980;2022-10-30T07:26:03;10.90;99.90
14144;DHT22;7152;48.348;10.980;2022-10-30T07:28:29;10.90;99.90
14144;DHT22;7152;48.348;10.980;2022-10-30T07:30:57;11.00;99.90
14144;DHT22;7152;48.348;10.980;2022-10-30T07:33:23;11.00;99.90
14144;DHT22;7152;48.348;10.980;2022-10-30T07:35:48;11.00;99.90
14144;DHT22;7152;48.348;10.980;2022-10-30T07:38:14;11.00;99.90
14144;DHT22;7152;48.348;10.980;2022-10-30T07:40:42;11.10;99.90
14144;DHT22;7152;48.348;10.980;2022-10-30T07:43:08;11.10;99.90
14144;DHT22;7152;48.348;10.980;2022-10-30T07:45:38;11.10;99.90
14144;DHT22;7152;48.348;10.980;2022-10-30T07:48:04;11.20;99.90
14144;DHT22;7152;48.348;10.980;2022-10-30T07:50:30;11.30;99.90
14144;DHT22;7152;48.348;10.980;2022-10-30T07:52:56;11.30;99.90
14144;DHT22;7152;48.348;10.980;2022-10-30T07:55:22;11.30;99.90
14144;DHT22;7152;48.348;10.980;2022-10-30T07:57:48;11.40;99.90
14144;DHT22;7152;48.348;10.980;2022-10-30T08:00:15;11.40;99.90
14144;DHT22;7152;48.348;10.980;2022-10-30T08:02:41;11.50;99.90
14144;DHT22;7152;48.348;10.980;2022-10-30T08:05:07;11.50;99.90
14144;DHT22;7152;48.348;10.980;2022-10-30T08:07:35;11.60;99.90
14144;DHT22;7152;48.348;10.980;2022-10-30T08:10:01;11.70;99.90
14144;DHT22;7152;48.348;10.980;2022-10-30T08:12:27;11.70;99.90
14144;DHT22;7152;48.348;10.980;2022-10-30T08:14:52;11.80;99.90
14144;DHT22;7152;48.348;10.980;2022-10-30T08:17:19;11.90;99.90
14144;DHT22;7152;48.348;10.980;2022-10-30T08:19:45;12.00;99.90
14144;DHT22;7152;48.348;10.980;2022-10-30T08:22:11;12.10;99.90
14144;DHT22;7152;48.348;10.980;2022-10-30T08:24:37;12.20;99.90
14144;DHT22;7152;48.348;10.980;2022-10-30T08:27:03;12.20;99.90
14144;DHT22;7152;48.348;10.980;2022-10-30T08:29:29;12.30;99.90
14144;DHT22;7152;48.348;10.980;2022-10-30T08:31:55;12.30;99.90
14144;DHT22;7152;48.348;10.980;2022-10-30T08:34:21;12.40;99.90
14144;DHT22;7152;48.348;10.980;2022-10-30T08:36:48;12.40;99.90
14144;DHT22;7152;48.348;10.980;2022-10-30T08:39:15;12.50;99.90
14144;DHT22;7152;48.348;10.980;2022-10-30T08:41:41;12.60;99.90
14144;DHT22;7152;48.348;10.980;2022-10-30T08:44:06;12.60;99.90
14144;DHT22;7152;48.348;10.980;2022-10-30T08:46:32;12.70;99.90
14144;DHT22;7152;48.348;10.980;2022-10-30T08:48:57;12.80;99.90
14144;DHT22;7152;48.348;10.980;2022-10-30T08:51:23;12.90;99.90
14144;DHT22;7152;48.348;10.980;2022-10-30T08:53:49;12.90;99.90
14144;DHT22;7152;48.348;10.980;2022-10-30T08:56:15;13.00;99.90
14144;DHT22;7152;48.348;10.980;2022-10-30T08:58:41;13.10;99.90
14144;DHT22;7152;48.348;10.980;2022-10-30T09:01:07;13.20;99.90
14144;DHT22;7152;48.348;10.980;2022-10-30T09:03:32;13.30;99.90
14144;DHT22;7152;48.348;10.980;2022-10-30T09:05:58;13.40;99.90
14144;DHT22;7152;48.348;10.980;2022-10-30T09:08:24;13.50;99.90
14144;DHT22;7152;48.348;10.980;2022-10-30T09:10:57;13.60;99.90
14144;DHT22;7152;48.348;10.980;2022-10-30T09:13:23;13.60;99.90
14144;DHT22;7152;48.348;10.980;2022-10-30T09:15:49;13.70;99.90
14144;DHT22;7152;48.348;10.980;2022-10-30T09:18:15;13.70;99.90
14144;DHT22;7152;48.348;10.980;2022-10-30T09:20:40;13.80;99.90
14144;DHT22;7152;48.348;10.980;2022-10-30T09:23:06;13.90;99.90
14144;DHT22;7152;48.348;10.980;2022-10-30T09:25:32;13.90;99.90
14144;DHT22;7152;48.348;10.980;2022-10-30T09:27:57;14.00;99.90
14144;DHT22;7152;48.348;10.980;2022-10-30T09:30:23;14.10;99.90
14144;DHT22;7152;48.348;10.980;2022-10-30T09:32:55;14.20;99.90
14144;DHT22;7152;48.348;10.980;2022-10-30T09:35:21;14.30;99.90
14144;DHT22;7152;48.348;10.980;2022-10-30T09:37:47;14.40;99.90
14144;DHT22;7152;48.348;10.980;2022-10-30T09:43:37;14.60;99.90
14144;DHT22;7152;48.348;10.980;2022-10-30T09:51:53;14.80;99.90
14144;DHT22;7152;48.348;10.980;2022-10-30T10:00:10;15.10;99.90
14144;DHT22;7152;48.348;10.980;2022-10-30T10:03:02;15.20;99.90
14144;DHT22;7152;48.348;10.980;2022-10-30T10:08:10;15.30;99.90
14144;DHT22;7152;48.348;10.980;2022-10-30T10:10:43;15.30;99.90
14144;DHT22;7152;48.348;10.980;2022-10-30T10:13:38;15.40;99.90
14144;DHT22;7152;48.348;10.980;2022-10-30T10:16:20;15.50;99.90
14144;DHT22;7152;48.348;10.980;2022-10-30T10:18:56;15.60;99.90
14144;DHT22;7152;48.348;10.980;2022-10-30T10:21:25;15.70;99.90
14144;DHT22;7152;48.348;10.980;2022-10-30T10:23:54;15.70;99.90
14144;DHT22;7152;48.348;10.980;2022-10-30T10:31:57;16.10;99.90
14144;DHT22;7152;48.348;10.980;2022-10-30T10:47:38;16.70;99.90
14144;DHT22;7152;48.348;10.980;2022-10-30T10:50:36;16.80;99.90
14144;DHT22;7152;48.348;10.980;2022-10-30T10:53:15;16.90;99.90
14144;DHT22;7152;48.348;10.980;2022-10-30T10:55:48;17.00;99.90
14144;DHT22;7152;48.348;10.980;2022-10-30T10:58:38;17.10;99.90
14144;DHT22;7152;48.348;10.980;2022-10-30T11:01:21;17.20;99.90
14144;DHT22;7152;48.348;10.980;2022-10-30T11:03:53;17.40;99.90
14144;DHT22;7152;48.348;10.980;2022-10-30T11:06:25;17.40;99.90
14144;DHT22;7152;48.348;10.980;2022-10-30T11:08:52;17.50;99.90
14144;DHT22;7152;48.348;10.980;2022-10-30T11:11:22;17.50;99.90
14144;DHT22;7152;48.348;10.980;2022-10-30T11:13:48;17.70;99.90
14144;DHT22;7152;48.348;10.980;2022-10-30T11:16:28;17.70;99.90
14144;DHT22;7152;48.348;10.980;2022-10-30T11:18:58;17.80;99.90
14144;DHT22;7152;48.348;10.980;2022-10-30T11:21:25;17.80;99.90
14144;DHT22;7152;48.348;10.980;2022-10-30T11:23:51;17.80;99.90
14144;DHT22;7152;48.348;10.980;2022-10-30T11:28:51;17.80;99.90
14144;DHT22;7152;48.348;10.980;2022-10-30T11:31:33;17.90;99.90
14144;DHT22;7152;48.348;10.980;2022-10-30T11:36:53;18.00;99.90
14144;DHT22;7152;48.348;10.980;2022-10-30T11:39:32;18.10;99.90
14144;DHT22;7152;48.348;10.980;2022-10-30T11:42:04;18.30;99.90
14144;DHT22;7152;48.348;10.980;2022-10-30T11:47:05;18.80;99.90
14144;DHT22;7152;48.348;10.980;2022-10-30T11:50:24;19.00;99.90
14144;DHT22;7152;48.348;10.980;2022-10-30T11:52:36;19.20;99.90
14144;DHT22;7152;48.348;10.980;2022-10-30T11:55:59;19.50;99.90
14144;DHT22;7152;48.348;10.980;2022-10-30T11:58:37;19.70;99.90
14144;DHT22;7152;48.348;10.980;2022-10-30T12:03:47;20.10;99.90
14144;DHT22;7152;48.348;10.980;2022-10-30T12:06:25;20.30;99.90
14144;DHT22;7152;48.348;10.980;2022-10-30T12:09:20;20.50;99.90
14144;DHT22;7152;48.348;10.980;2022-10-30T12:11:47;20.60;99.90
14144;DHT22;7152;48.348;10.980;2022-10-30T12:14:24;20.60;99.90
14144;DHT22;7152;48.348;10.980;2022-10-30T12:16:54;20.80;99.90
14144;DHT22;7152;48.348;10.980;2022-10-30T12:19:22;20.90;99.90
14144;DHT22;7152;48.348;10.980;2022-10-30T12:21:52;21.00;99.90
14144;DHT22;7152;48.348;10.980;2022-10-30T12:26:50;21.30;99.90
14144;DHT22;7152;48.348;10.980;2022-10-30T12:29:18;21.50;99.90
14144;DHT22;7152;48.348;10.980;2022-10-30T12:31:58;21.60;99.90
14144;DHT22;7152;48.348;10.980;2022-10-30T12:34:44;21.80;99.90
14144;DHT22;7152;48.348;10.980;2022-10-30T12:37:18;22.00;99.90
14144;DHT22;7152;48.348;10.980;2022-10-30T12:40:15;22.30;99.90
14144;DHT22;7152;48.348;10.980;2022-10-30T12:42:50;22.50;99.90
14144;DHT22;7152;48.348;10.980;2022-10-30T12:45:31;22.80;99.90
14144;DHT22;7152;48.348;10.980;2022-10-30T12:48:22;23.00;99.90
14144;DHT22;7152;48.348;10.980;2022-10-30T12:53:46;23.30;99.90
14144;DHT22;7152;48.348;10.980;2022-10-30T12:56:18;23.30;99.90
14144;DHT22;7152;48.348;10.980;2022-10-30T12:58:51;23.30;99.90
14144;DHT22;7152;48.348;10.980;2022-10-30T13:01:50;23.40;99.90
14144;DHT22;7152;48.348;10.980;2022-10-30T13:04:25;23.50;99.90
14144;DHT22;7152;48.348;10.980;2022-10-30T13:07:28;23.70;99.90
14144;DHT22;7152;48.348;10.980;2022-10-30T13:12:45;24.10;99.90
14144;DHT22;7152;48.348;10.980;2022-10-30T13:15:25;24.10;99.90
14144;DHT22;7152;48.348;10.980;2022-10-30T13:17:52;24.10;99.90
14144;DHT22;7152;48.348;10.980;2022-10-30T13:20:20;24.10;99.90
14144;DHT22;7152;48.348;10.980;2022-10-30T13:23:07;24.10;99.90
14144;DHT22;7152;48.348;10.980;2022-10-30T13:31:33;23.90;99.90
14144;DHT22;7152;48.348;10.980;2022-10-30T13:34:29;23.40;99.90
14144;DHT22;7152;48.348;10.980;2022-10-30T13:36:59;23.00;99.90
14144;DHT22;7152;48.348;10.980;2022-10-30T13:42:51;22.00;99.90
14144;DHT22;7152;48.348;10.980;2022-10-30T13:53:22;20.60;99.90
14144;DHT22;7152;48.348;10.980;2022-10-30T13:55:49;20.40;99.90
14144;DHT22;7152;48.348;10.980;2022-10-30T13:58:34;20.20;99.90
14144;DHT22;7152;48.348;10.980;2022-10-30T14:01:19;20.10;99.90
14144;DHT22;7152;48.348;10.980;2022-10-30T14:04:01;19.90;99.90
14144;DHT22;7152;48.348;10.980;2022-10-30T14:06:39;19.80;99.90
14144;DHT22;7152;48.348;10.980;2022-10-30T14:09:23;19.70;99.90
14144;DHT22;7152;48.348;10.980;2022-10-30T14:11:52;19.50;99.90
14144;DHT22;7152;48.348;10.980;2022-10-30T14:14:27;19.50;99.90
14144;DHT22;7152;48.348;10.980;2022-10-30T14:17:13;19.30;99.90
14144;DHT22;7152;48.348;10.980;2022-10-30T14:22:29;19.10;99.90
14144;DHT22;7152;48.348;10.980;2022-10-30T14:24:55;19.00;99.90
14144;DHT22;7152;48.348;10.980;2022-10-30T14:27:27;19.00;99.90
14144;DHT22;7152;48.348;10.980;2022-10-30T14:29:53;18.90;99.90
14144;DHT22;7152;48.348;10.980;2022-10-30T14:39:56;18.60;99.90
14144;DHT22;7152;48.348;10.980;2022-10-30T14:42:43;18.60;99.90
14144;DHT22;7152;48.348;10.980;2022-10-30T14:45:33;18.50;99.90
14144;DHT22;7152;48.348;10.980;2022-10-30T14:48:10;18.40;99.90
14144;DHT22;7152;48.348;10.980;2022-10-30T14:56:47;18.10;99.90
14144;DHT22;7152;48.348;10.980;2022-10-30T15:12:39;17.70;99.90
14144;DHT22;7152;48.348;10.980;2022-10-30T15:15:11;17.60;99.90
14144;DHT22;7152;48.348;10.980;2022-10-30T15:17:39;17.60;99.90
14144;DHT22;7152;48.348;10.980;2022-10-30T15:20:28;17.50;99.90
14144;DHT22;7152;48.348;10.980;2022-10-30T15:23:05;17.50;99.90
14144;DHT22;7152;48.348;10.980;2022-10-30T15:25:36;17.50;99.90
14144;DHT22;7152;48.348;10.980;2022-10-30T15:28:03;17.40;99.90
14144;DHT22;7152;48.348;10.980;2022-10-30T15:30:29;17.30;99.90
14144;DHT22;7152;48.348;10.980;2022-10-30T15:32:54;17.20;99.90
14144;DHT22;7152;48.348;10.980;2022-10-30T15:35:28;17.10;99.90
14144;DHT22;7152;48.348;10.980;2022-10-30T15:38:02;17.00;99.90
14144;DHT22;7152;48.348;10.980;2022-10-30T15:40:28;16.90;99.90
14144;DHT22;7152;48.348;10.980;2022-10-30T15:42:55;16.80;99.90
14144;DHT22;7152;48.348;10.980;2022-10-30T15:45:37;16.50;99.90
14144;DHT22;7152;48.348;10.980;2022-10-30T15:50:38;16.40;99.90
14144;DHT22;7152;48.348;10.980;2022-10-30T15:53:13;16.30;99.90
14144;DHT22;7152;48.348;10.980;2022-10-30T15:55:39;16.20;99.90
14144;DHT22;7152;48.348;10.980;2022-10-30T15:58:05;16.10;99.90
14144;DHT22;7152;48.348;10.980;2022-10-30T16:00:35;16.00;99.90
14144;DHT22;7152;48.348;10.980;2022-10-30T16:03:04;16.00;99.90
14144;DHT22;7152;48.348;10.980;2022-10-30T16:05:30;15.90;99.90
14144;DHT22;7152;48.348;10.980;2022-10-30T16:07:58;15.80;99.90
14144;DHT22;7152;48.348;10.980;2022-10-30T16:10:34;15.70;99.90
14144;DHT22;7152;48.348;10.980;2022-10-30T16:13:01;15.60;99.90
14144;DHT22;7152;48.348;10.980;2022-10-30T16:15:34;15.50;99.90
14144;DHT22;7152;48.348;10.980;2022-10-30T16:20:41;15.30;99.90
14144;DHT22;7152;48.348;10.980;2022-10-30T16:23:07;15.30;99.90
14144;DHT22;7152;48.348;10.980;2022-10-30T16:25:33;15.20;99.90
14144;DHT22;7152;48.348;10.980;2022-10-30T16:28:03;15.20;99.90
14144;DHT22;7152;48.348;10.980;2022-10-30T16:30:30;15.10;99.90
14144;DHT22;7152;48.348;10.980;2022-10-30T16:32:57;15.10;99.90
14144;DHT22;7152;48.348;10.980;2022-10-30T16:35:23;15.00;99.90
14144;DHT22;7152;48.348;10.980;2022-10-30T16:37:49;15.00;99.90
14144;DHT22;7152;48.348;10.980;2022-10-30T16:40:26;14.90;99.90
14144;DHT22;7152;48.348;10.980;2022-10-30T16:43:01;14.90;99.90
14144;DHT22;7152;48.348;10.980;2022-10-30T16:48:07;14.80;99.90
14144;DHT22;7152;48.348;10.980;2022-10-30T16:50:35;14.80;99.90
14144;DHT22;7152;48.348;10.980;2022-10-30T16:53:27;14.70;99.90
14144;DHT22;7152;48.348;10.980;2022-10-30T16:55:55;14.70;99.90
14144;DHT22;7152;48.348;10.980;2022-10-30T16:58:23;14.60;99.90
14144;DHT22;7152;48.348;10.980;2022-10-30T17:00:52;14.60;99.90
14144;DHT22;7152;48.348;10.980;2022-10-30T17:03:20;14.60;99.90
14144;DHT22;7152;48.348;10.980;2022-10-30T17:06:05;14.50;99.90
14144;DHT22;7152;48.348;10.980;2022-10-30T17:08:42;14.50;99.90
14144;DHT22;7152;48.348;10.980;2022-10-30T17:11:19;14.50;99.90
14144;DHT22;7152;48.348;10.980;2022-10-30T17:16:28;14.40;99.90
14144;DHT22;7152;48.348;10.980;2022-10-30T17:19:00;14.40;99.90
14144;DHT22;7152;48.348;10.980;2022-10-30T17:21:44;14.40;99.90
14144;DHT22;7152;48.348;10.980;2022-10-30T17:24:22;14.40;99.90
14144;DHT22;7152;48.348;10.980;2022-10-30T17:27:00;14.40;99.90
14144;DHT22;7152;48.348;10.980;2022-10-30T17:29:43;14.40;99.90
14144;DHT22;7152;48.348;10.980;2022-10-30T17:34:44;14.30;99.90
14144;DHT22;7152;48.348;10.980;2022-10-30T17:37:10;14.30;99.90
14144;DHT22;7152;48.348;10.980;2022-10-30T17:39:36;14.30;99.90
14144;DHT22;7152;48.348;10.980;2022-10-30T17:42:02;14.30;99.90
14144;DHT22;7152;48.348;10.980;2022-10-30T17:44:34;14.30;99.90
14144;DHT22;7152;48.348;10.980;2022-10-30T17:47:00;14.30;99.90
14144;DHT22;7152;48.348;10.980;2022-10-30T17:49:32;14.30;99.90
14144;DHT22;7152;48.348;10.980;2022-10-30T17:51:58;14.30;99.90
14144;DHT22;7152;48.348;10.980;2022-10-30T17:54:24;14.20;99.90
14144;DHT22;7152;48.348;10.980;2022-10-30T17:56:50;14.20;99.90
14144;DHT22;7152;48.348;10.980;2022-10-30T17:59:16;14.20;99.90
14144;DHT22;7152;48.348;10.980;2022-10-30T18:01:42;14.10;99.90
14144;DHT22;7152;48.348;10.980;2022-10-30T18:04:15;14.10;99.90
14144;DHT22;7152;48.348;10.980;2022-10-30T18:06:42;14.00;99.90
14144;DHT22;7152;48.348;10.980;2022-10-30T18:09:08;14.00;99.90
14144;DHT22;7152;48.348;10.980;2022-10-30T18:11:34;13.90;99.90
14144;DHT22;7152;48.348;10.980;2022-10-30T18:14:00;13.90;99.90